createdAt,value
2018-05-12T15:09:44.863Z,70.5
2018-05-12T15:10:12.806Z,70.01
2018-05-12T15:10:40.835Z,69.91
2018-05-12T15:11:08.898Z,70.1
2018-05-12T15:11:36.962Z,69.91
2018-05-12T15:12:05.007Z,70.4
2018-05-12T15:12:33.065Z,71.08
2018-05-12T15:13:01.124Z,70.78
2018-05-12T15:13:29.111Z,70.85
2018-05-12T15:13:57.064Z,71.33
2018-05-12T15:14:25.093Z,71.43
2018-05-12T15:14:53.227Z,70.95
2018-05-12T15:15:21.208Z,71.3
2018-05-12T15:15:49.231Z,72.76
2018-05-12T15:16:17.293Z,72.76
2018-05-12T15:16:45.315Z,72.47
2018-05-12T15:17:13.339Z,72.66
2018-05-12T15:17:41.408Z,71.78
2018-05-12T15:18:09.427Z,71.69
2018-05-12T15:18:37.465Z,71.88
2018-05-12T15:19:05.536Z,71.88
2018-05-12T15:19:33.591Z,73.3
2018-05-12T15:20:01.532Z,73.85
2018-05-12T15:20:29.562Z,74.44
2018-05-12T15:20:57.603Z,74.73
2018-05-12T15:21:25.651Z,73.89
2018-05-12T15:21:53.601Z,73.89
2018-05-12T15:22:21.645Z,73.66
2018-05-12T15:22:49.719Z,74.98
2018-05-12T15:23:17.733Z,75.18
2018-05-12T15:23:45.747Z,75.85
2018-05-12T15:24:13.696Z,76.25
2018-05-12T15:24:41.738Z,77.43
2018-05-12T15:25:09.876Z,77.04
2018-05-12T15:25:37.886Z,76.89
2018-05-12T15:26:05.920Z,77.08
2018-05-12T15:26:33.989Z,77.18
2018-05-12T15:27:02.072Z,76.89
2018-05-12T15:27:30.042Z,76.89
2018-05-12T15:27:58.126Z,76.64
2018-05-12T15:28:26.053Z,76.44
2018-05-12T15:28:54.103Z,76.15
2018-05-12T15:29:21.944Z,76.01
2018-05-12T15:29:49.890Z,76.65
2018-05-12T15:30:17.915Z,77.72
2018-05-12T15:30:45.934Z,77.34
2018-05-12T15:31:13.985Z,77.24
2018-05-12T15:31:41.962Z,78.11
2018-05-12T15:32:09.930Z,77.34
2018-05-12T15:32:38.016Z,77.69
2018-05-12T15:33:06.090Z,77.69
2018-05-12T15:33:34.133Z,77.78
2018-05-12T15:34:02.080Z,78.66
2018-05-12T15:34:30.151Z,78.46
2018-05-12T15:34:58.203Z,78.66
2018-05-12T15:35:26.241Z,79.1
2018-05-12T15:35:54.262Z,79.33
2018-05-12T15:36:22.464Z,79.14
2018-05-12T15:36:50.217Z,79.14
2018-05-12T15:37:18.248Z,78.79
2018-05-12T15:37:46.165Z,78.59
2018-05-12T15:38:14.270Z,77.82
2018-05-12T15:38:42.320Z,76.95
2018-05-12T15:39:10.407Z,77.34
2018-05-12T15:39:38.478Z,77.04
2018-05-12T15:40:06.669Z,77.18
2018-05-12T15:40:34.761Z,77.28
2018-05-12T15:41:02.798Z,77.08
2018-05-12T15:41:30.924Z,76.64
